sensor_id;sensor_type;location;lat;lon;timestamp;P1;durP1;ratioP1;P2;durP2;ratioP2
19998;SDS011;10160;50.926;4.374;2022-07-25T00:00:42;8.35;;;4.55;;
19998;SDS011;10160;50.926;4.374;2022-07-25T00:03:08;10.15;;;4.10;;
19998;SDS011;10160;50.926;4.374;2022-07-25T00:05:34;10.27;;;4.32;;
19998;SDS011;10160;50.926;4.374;2022-07-25T00:07:59;8.18;;;4.40;;
19998;SDS011;10160;50.926;4.374;2022-07-25T00:10:25;10.52;;;4.32;;
19998;SDS011;10160;50.926;4.374;2022-07-25T00:12:51;8.73;;;4.95;;
19998;SDS011;10160;50.926;4.374;2022-07-25T00:15:16;8.10;;;4.18;;
19998;SDS011;10160;50.926;4.374;2022-07-25T00:17:42;9.55;;;4.82;;
19998;SDS011;10160;50.926;4.374;2022-07-25T00:20:07;10.65;;;4.35;;
19998;SDS011;10160;50.926;4.374;2022-07-25T00:22:33;8.38;;;4.35;;
19998;SDS011;10160;50.926;4.374;2022-07-25T00:24:59;10.55;;;4.45;;
19998;SDS011;10160;50.926;4.374;2022-07-25T00:27:25;10.90;;;4.47;;
19998;SDS011;10160;50.926;4.374;2022-07-25T00:29:51;9.80;;;4.72;;
19998;SDS011;10160;50.926;4.374;2022-07-25T00:32:16;7.68;;;5.10;;
19998;SDS011;10160;50.926;4.374;2022-07-25T00:34:42;9.43;;;5.50;;
19998;SDS011;10160;50.926;4.374;2022-07-25T00:37:08;9.05;;;4.93;;
19998;SDS011;10160;50.926;4.374;2022-07-25T00:39:34;9.43;;;5.70;;
19998;SDS011;10160;50.926;4.374;2022-07-25T00:41:59;13.98;;;5.65;;
19998;SDS011;10160;50.926;4.374;2022-07-25T00:44:26;15.90;;;5.47;;
19998;SDS011;10160;50.926;4.374;2022-07-25T00:46:55;8.00;;;5.22;;
19998;SDS011;10160;50.926;4.374;2022-07-25T00:49:21;10.20;;;4.85;;
19998;SDS011;10160;50.926;4.374;2022-07-25T00:51:48;11.85;;;5.53;;
19998;SDS011;10160;50.926;4.374;2022-07-25T00:54:14;10.85;;;5.75;;
19998;SDS011;10160;50.926;4.374;2022-07-25T00:56:40;9.70;;;5.85;;
19998;SDS011;10160;50.926;4.374;2022-07-25T00:59:06;9.63;;;5.35;;
19998;SDS011;10160;50.926;4.374;2022-07-25T01:01:32;11.80;;;5.43;;
19998;SDS011;10160;50.926;4.374;2022-07-25T01:03:58;8.73;;;5.63;;
19998;SDS011;10160;50.926;4.374;2022-07-25T01:06:23;10.85;;;5.50;;
19998;SDS011;10160;50.926;4.374;2022-07-25T01:08:50;8.20;;;5.15;;
19998;SDS011;10160;50.926;4.374;2022-07-25T01:11:16;9.70;;;5.72;;
19998;SDS011;10160;50.926;4.374;2022-07-25T01:13:41;8.43;;;5.43;;
19998;SDS011;10160;50.926;4.374;2022-07-25T01:16:07;8.70;;;5.30;;
19998;SDS011;10160;50.926;4.374;2022-07-25T01:18:33;7.47;;;4.82;;
19998;SDS011;10160;50.926;4.374;2022-07-25T01:20:59;9.48;;;5.68;;
19998;SDS011;10160;50.926;4.374;2022-07-25T01:23:25;11.27;;;4.97;;
19998;SDS011;10160;50.926;4.374;2022-07-25T01:25:51;8.70;;;5.03;;
19998;SDS011;10160;50.926;4.374;2022-07-25T01:28:17;9.13;;;4.72;;
19998;SDS011;10160;50.926;4.374;2022-07-25T01:30:42;10.95;;;5.22;;
19998;SDS011;10160;50.926;4.374;2022-07-25T01:33:08;12.25;;;5.15;;
19998;SDS011;10160;50.926;4.374;2022-07-25T01:35:34;11.18;;;5.70;;
19998;SDS011;10160;50.926;4.374;2022-07-25T01:38:00;7.97;;;5.03;;
19998;SDS011;10160;50.926;4.374;2022-07-25T01:40:25;9.88;;;4.80;;
19998;SDS011;10160;50.926;4.374;2022-07-25T01:42:51;14.48;;;4.65;;
19998;SDS011;10160;50.926;4.374;2022-07-25T01:45:17;7.75;;;4.72;;
19998;SDS011;10160;50.926;4.374;2022-07-25T01:47:42;7.40;;;5.03;;
19998;SDS011;10160;50.926;4.374;2022-07-25T01:50:08;10.52;;;5.10;;
19998;SDS011;10160;50.926;4.374;2022-07-25T01:52:36;8.68;;;5.32;;
19998;SDS011;10160;50.926;4.374;2022-07-25T01:55:03;10.60;;;5.30;;
19998;SDS011;10160;50.926;4.374;2022-07-25T01:57:29;9.65;;;5.22;;
19998;SDS011;10160;50.926;4.374;2022-07-25T01:59:55;13.90;;;5.40;;
19998;SDS011;10160;50.926;4.374;2022-07-25T02:02:20;8.57;;;5.60;;
19998;SDS011;10160;50.926;4.374;2022-07-25T02:04:46;8.25;;;5.57;;
19998;SDS011;10160;50.926;4.374;2022-07-25T02:07:11;8.85;;;5.30;;
19998;SDS011;10160;50.926;4.374;2022-07-25T02:09:37;9.35;;;5.40;;
19998;SDS011;10160;50.926;4.374;2022-07-25T02:12:04;11.20;;;5.40;;
19998;SDS011;10160;50.926;4.374;2022-07-25T02:14:31;15.20;;;5.63;;
19998;SDS011;10160;50.926;4.374;2022-07-25T02:16:57;8.13;;;5.28;;
19998;SDS011;10160;50.926;4.374;2022-07-25T02:19:23;11.02;;;5.68;;
19998;SDS011;10160;50.926;4.374;2022-07-25T02:21:49;9.15;;;5.18;;
19998;SDS011;10160;50.926;4.374;2022-07-25T02:24:17;9.35;;;5.15;;
19998;SDS011;10160;50.926;4.374;2022-07-25T02:26:43;15.85;;;5.32;;
19998;SDS011;10160;50.926;4.374;2022-07-25T02:29:08;10.77;;;5.53;;
19998;SDS011;10160;50.926;4.374;2022-07-25T02:31:34;8.07;;;4.97;;
19998;SDS011;10160;50.926;4.374;2022-07-25T02:34:00;10.38;;;5.45;;
19998;SDS011;10160;50.926;4.374;2022-07-25T02:36:25;9.38;;;4.95;;
19998;SDS011;10160;50.926;4.374;2022-07-25T02:38:51;14.95;;;5.22;;
19998;SDS011;10160;50.926;4.374;2022-07-25T02:41:17;9.48;;;4.80;;
19998;SDS011;10160;50.926;4.374;2022-07-25T02:43:42;11.82;;;5.72;;
19998;SDS011;10160;50.926;4.374;2022-07-25T02:46:08;9.75;;;4.57;;
19998;SDS011;10160;50.926;4.374;2022-07-25T02:48:34;11.85;;;5.60;;
19998;SDS011;10160;50.926;4.374;2022-07-25T02:50:59;9.85;;;5.00;;
19998;SDS011;10160;50.926;4.374;2022-07-25T02:53:28;12.15;;;5.43;;
19998;SDS011;10160;50.926;4.374;2022-07-25T02:55:54;10.57;;;4.78;;
19998;SDS011;10160;50.926;4.374;2022-07-25T02:58:19;9.57;;;5.13;;
19998;SDS011;10160;50.926;4.374;2022-07-25T03:00:45;11.75;;;5.15;;
19998;SDS011;10160;50.926;4.374;2022-07-25T03:03:11;9.48;;;5.43;;
19998;SDS011;10160;50.926;4.374;2022-07-25T03:05:37;13.50;;;5.15;;
19998;SDS011;10160;50.926;4.374;2022-07-25T03:08:03;9.48;;;5.60;;
19998;SDS011;10160;50.926;4.374;2022-07-25T03:10:29;10.77;;;5.43;;
19998;SDS011;10160;50.926;4.374;2022-07-25T03:12:55;9.27;;;5.80;;
19998;SDS011;10160;50.926;4.374;2022-07-25T03:15:20;10.55;;;6.07;;
19998;SDS011;10160;50.926;4.374;2022-07-25T03:17:46;9.65;;;5.47;;
19998;SDS011;10160;50.926;4.374;2022-07-25T03:20:12;8.70;;;5.10;;
19998;SDS011;10160;50.926;4.374;2022-07-25T03:22:37;7.50;;;5.22;;
19998;SDS011;10160;50.926;4.374;2022-07-25T03:25:03;8.80;;;5.53;;
19998;SDS011;10160;50.926;4.374;2022-07-25T03:27:29;8.63;;;5.40;;
19998;SDS011;10160;50.926;4.374;2022-07-25T03:29:55;9.73;;;5.38;;
19998;SDS011;10160;50.926;4.374;2022-07-25T03:32:22;9.80;;;5.30;;
19998;SDS011;10160;50.926;4.374;2022-07-25T03:34:48;11.52;;;5.68;;
19998;SDS011;10160;50.926;4.374;2022-07-25T03:37:13;9.68;;;5.35;;
19998;SDS011;10160;50.926;4.374;2022-07-25T03:39:39;11.95;;;5.10;;
19998;SDS011;10160;50.926;4.374;2022-07-25T03:42:05;14.25;;;5.40;;
19998;SDS011;10160;50.926;4.374;2022-07-25T03:44:30;9.75;;;5.28;;
19998;SDS011;10160;50.926;4.374;2022-07-25T03:46:56;11.57;;;5.38;;
19998;SDS011;10160;50.926;4.374;2022-07-25T03:49:22;9.60;;;5.07;;
19998;SDS011;10160;50.926;4.374;2022-07-25T03:51:47;13.25;;;5.63;;
19998;SDS011;10160;50.926;4.374;2022-07-25T03:54:13;10.63;;;5.75;;
19998;SDS011;10160;50.926;4.374;2022-07-25T03:56:46;10.55;;;5.05;;
19998;SDS011;10160;50.926;4.374;2022-07-25T03:59:14;8.95;;;5.03;;
19998;SDS011;10160;50.926;4.374;2022-07-25T04:01:42;8.38;;;5.13;;
19998;SDS011;10160;50.926;4.374;2022-07-25T04:04:09;10.00;;;5.20;;
19998;SDS011;10160;50.926;4.374;2022-07-25T04:06:35;7.35;;;4.22;;
19998;SDS011;10160;50.926;4.374;2022-07-25T04:09:02;10.93;;;4.68;;
19998;SDS011;10160;50.926;4.374;2022-07-25T04:11:28;9.35;;;4.30;;
19998;SDS011;10160;50.926;4.374;2022-07-25T04:13:57;13.75;;;4.22;;
19998;SDS011;10160;50.926;4.374;2022-07-25T04:18:58;6.90;;;3.78;;
19998;SDS011;10160;50.926;4.374;2022-07-25T04:21:24;9.40;;;4.10;;
19998;SDS011;10160;50.926;4.374;2022-07-25T04:23:50;7.60;;;3.90;;
19998;SDS011;10160;50.926;4.374;2022-07-25T04:26:16;10.10;;;3.95;;
19998;SDS011;10160;50.926;4.374;2022-07-25T04:28:42;7.95;;;3.75;;
19998;SDS011;10160;50.926;4.374;2022-07-25T04:31:08;11.35;;;3.38;;
19998;SDS011;10160;50.926;4.374;2022-07-25T04:33:37;6.50;;;3.20;;
19998;SDS011;10160;50.926;4.374;2022-07-25T04:36:03;9.85;;;3.45;;
19998;SDS011;10160;50.926;4.374;2022-07-25T04:38:30;8.57;;;3.05;;
19998;SDS011;10160;50.926;4.374;2022-07-25T04:40:58;13.15;;;3.47;;
19998;SDS011;10160;50.926;4.374;2022-07-25T04:43:25;8.52;;;2.95;;
19998;SDS011;10160;50.926;4.374;2022-07-25T04:45:51;6.05;;;2.85;;
19998;SDS011;10160;50.926;4.374;2022-07-25T04:48:17;7.72;;;3.10;;
19998;SDS011;10160;50.926;4.374;2022-07-25T04:50:43;7.78;;;2.58;;
19998;SDS011;10160;50.926;4.374;2022-07-25T04:53:09;6.07;;;2.53;;
19998;SDS011;10160;50.926;4.374;2022-07-25T04:55:35;6.03;;;2.70;;
19998;SDS011;10160;50.926;4.374;2022-07-25T04:58:02;6.90;;;2.85;;
19998;SDS011;10160;50.926;4.374;2022-07-25T05:00:29;7.82;;;2.58;;
19998;SDS011;10160;50.926;4.374;2022-07-25T05:02:55;9.77;;;3.30;;
19998;SDS011;10160;50.926;4.374;2022-07-25T05:05:21;9.30;;;2.80;;
19998;SDS011;10160;50.926;4.374;2022-07-25T05:07:47;8.85;;;3.00;;
19998;SDS011;10160;50.926;4.374;2022-07-25T05:10:14;8.48;;;3.05;;
19998;SDS011;10160;50.926;4.374;2022-07-25T05:12:40;8.98;;;2.78;;
19998;SDS011;10160;50.926;4.374;2022-07-25T05:15:06;8.77;;;3.00;;
19998;SDS011;10160;50.926;4.374;2022-07-25T05:17:32;5.38;;;2.53;;
19998;SDS011;10160;50.926;4.374;2022-07-25T05:19:57;9.70;;;2.75;;
19998;SDS011;10160;50.926;4.374;2022-07-25T05:22:23;7.47;;;2.47;;
19998;SDS011;10160;50.926;4.374;2022-07-25T05:24:49;8.00;;;2.35;;
19998;SDS011;10160;50.926;4.374;2022-07-25T05:27:15;8.77;;;2.63;;
19998;SDS011;10160;50.926;4.374;2022-07-25T05:29:40;6.53;;;2.08;;
19998;SDS011;10160;50.926;4.374;2022-07-25T05:32:06;8.45;;;3.10;;
19998;SDS011;10160;50.926;4.374;2022-07-25T05:34:32;6.32;;;1.58;;
19998;SDS011;10160;50.926;4.374;2022-07-25T05:36:58;5.63;;;2.42;;
19998;SDS011;10160;50.926;4.374;2022-07-25T05:39:23;9.52;;;1.98;;
19998;SDS011;10160;50.926;4.374;2022-07-25T05:41:49;7.63;;;2.15;;
19998;SDS011;10160;50.926;4.374;2022-07-25T05:44:14;10.95;;;2.53;;
19998;SDS011;10160;50.926;4.374;2022-07-25T05:46:40;7.80;;;1.90;;
19998;SDS011;10160;50.926;4.374;2022-07-25T05:49:06;12.38;;;2.15;;
19998;SDS011;10160;50.926;4.374;2022-07-25T05:51:31;11.48;;;2.10;;
19998;SDS011;10160;50.926;4.374;2022-07-25T05:53:57;8.52;;;2.22;;
19998;SDS011;10160;50.926;4.374;2022-07-25T05:56:23;10.85;;;2.15;;
19998;SDS011;10160;50.926;4.374;2022-07-25T05:58:48;7.72;;;2.20;;
19998;SDS011;10160;50.926;4.374;2022-07-25T06:01:15;8.50;;;2.33;;
19998;SDS011;10160;50.926;4.374;2022-07-25T06:03:40;7.07;;;2.10;;
19998;SDS011;10160;50.926;4.374;2022-07-25T06:06:06;9.68;;;2.45;;
19998;SDS011;10160;50.926;4.374;2022-07-25T06:08:33;7.35;;;2.30;;
19998;SDS011;10160;50.926;4.374;2022-07-25T06:11:03;12.13;;;2.60;;
19998;SDS011;10160;50.926;4.374;2022-07-25T06:13:30;9.90;;;2.50;;
19998;SDS011;10160;50.926;4.374;2022-07-25T06:15:56;6.38;;;2.33;;
19998;SDS011;10160;50.926;4.374;2022-07-25T06:18:22;13.27;;;2.72;;
19998;SDS011;10160;50.926;4.374;2022-07-25T06:20:48;8.02;;;2.35;;
19998;SDS011;10160;50.926;4.374;2022-07-25T06:23:14;13.18;;;2.90;;
19998;SDS011;10160;50.926;4.374;2022-07-25T06:25:40;9.70;;;2.10;;
19998;SDS011;10160;50.926;4.374;2022-07-25T06:28:06;11.93;;;2.95;;
19998;SDS011;10160;50.926;4.374;2022-07-25T06:30:33;9.18;;;2.63;;
19998;SDS011;10160;50.926;4.374;2022-07-25T06:32:59;10.10;;;3.17;;
19998;SDS011;10160;50.926;4.374;2022-07-25T06:35:24;7.45;;;2.42;;
19998;SDS011;10160;50.926;4.374;2022-07-25T06:37:50;11.20;;;2.22;;
19998;SDS011;10160;50.926;4.374;2022-07-25T06:40:15;5.32;;;1.90;;
19998;SDS011;10160;50.926;4.374;2022-07-25T06:42:44;11.32;;;2.10;;
19998;SDS011;10160;50.926;4.374;2022-07-25T06:45:11;7.18;;;2.45;;
19998;SDS011;10160;50.926;4.374;2022-07-25T06:47:39;5.75;;;1.98;;
19998;SDS011;10160;50.926;4.374;2022-07-25T06:50:06;8.80;;;2.17;;
19998;SDS011;10160;50.926;4.374;2022-07-25T06:52:34;9.55;;;2.03;;
19998;SDS011;10160;50.926;4.374;2022-07-25T06:55:00;6.00;;;2.03;;
19998;SDS011;10160;50.926;4.374;2022-07-25T06:57:26;10.85;;;1.80;;
19998;SDS011;10160;50.926;4.374;2022-07-25T06:59:52;7.13;;;1.73;;
19998;SDS011;10160;50.926;4.374;2022-07-25T07:02:17;8.10;;;2.13;;
19998;SDS011;10160;50.926;4.374;2022-07-25T07:04:44;8.85;;;1.70;;
19998;SDS011;10160;50.926;4.374;2022-07-25T07:07:10;10.30;;;2.53;;
19998;SDS011;10160;50.926;4.374;2022-07-25T07:09:35;8.18;;;2.22;;
19998;SDS011;10160;50.926;4.374;2022-07-25T07:12:01;7.80;;;1.85;;
19998;SDS011;10160;50.926;4.374;2022-07-25T07:26:47;8.40;;;2.03;;
19998;SDS011;10160;50.926;4.374;2022-07-25T07:29:13;6.47;;;2.08;;
19998;SDS011;10160;50.926;4.374;2022-07-25T07:31:57;8.98;;;1.80;;
19998;SDS011;10160;50.926;4.374;2022-07-25T07:44:49;7.43;;;1.65;;
19998;SDS011;10160;50.926;4.374;2022-07-25T07:57:26;5.85;;;1.77;;
19998;SDS011;10160;50.926;4.374;2022-07-25T07:59:51;5.53;;;2.00;;
19998;SDS011;10160;50.926;4.374;2022-07-25T08:02:17;10.80;;;1.95;;
19998;SDS011;10160;50.926;4.374;2022-07-25T08:17:57;6.57;;;1.90;;
19998;SDS011;10160;50.926;4.374;2022-07-25T08:30:41;6.72;;;1.95;;
19998;SDS011;10160;50.926;4.374;2022-07-25T08:33:09;7.22;;;1.77;;
19998;SDS011;10160;50.926;4.374;2022-07-25T08:45:25;6.40;;;1.90;;
19998;SDS011;10160;50.926;4.374;2022-07-25T09:01:12;6.78;;;1.60;;
19998;SDS011;10160;50.926;4.374;2022-07-25T09:56:58;5.38;;;1.30;;
19998;SDS011;10160;50.926;4.374;2022-07-25T09:59:24;5.82;;;1.50;;
19998;SDS011;10160;50.926;4.374;2022-07-25T10:11:25;6.70;;;1.65;;
19998;SDS011;10160;50.926;4.374;2022-07-25T10:13:52;9.05;;;2.15;;
19998;SDS011;10160;50.926;4.374;2022-07-25T10:16:22;6.88;;;1.67;;
19998;SDS011;10160;50.926;4.374;2022-07-25T10:18:50;5.72;;;1.83;;
19998;SDS011;10160;50.926;4.374;2022-07-25T10:21:21;7.55;;;1.63;;
19998;SDS011;10160;50.926;4.374;2022-07-25T10:24:04;9.05;;;2.03;;
19998;SDS011;10160;50.926;4.374;2022-07-25T10:29:54;5.05;;;1.70;;
19998;SDS011;10160;50.926;4.374;2022-07-25T10:35:47;11.30;;;2.42;;
19998;SDS011;10160;50.926;4.374;2022-07-25T10:41:39;6.68;;;1.90;;
19998;SDS011;10160;50.926;4.374;2022-07-25T10:44:11;12.32;;;1.83;;
19998;SDS011;10160;50.926;4.374;2022-07-25T10:46:38;9.38;;;1.90;;
19998;SDS011;10160;50.926;4.374;2022-07-25T10:55:24;8.20;;;1.98;;
19998;SDS011;10160;50.926;4.374;2022-07-25T11:01:32;10.43;;;2.00;;
19998;SDS011;10160;50.926;4.374;2022-07-25T11:07:33;8.88;;;2.15;;
19998;SDS011;10160;50.926;4.374;2022-07-25T11:33:22;8.93;;;2.33;;
19998;SDS011;10160;50.926;4.374;2022-07-25T11:35:47;8.50;;;2.42;;
19998;SDS011;10160;50.926;4.374;2022-07-25T11:38:13;12.20;;;2.20;;
19998;SDS011;10160;50.926;4.374;2022-07-25T12:06:05;7.63;;;1.95;;
19998;SDS011;10160;50.926;4.374;2022-07-25T12:08:35;9.43;;;2.13;;
19998;SDS011;10160;50.926;4.374;2022-07-25T12:11:03;6.97;;;1.58;;
19998;SDS011;10160;50.926;4.374;2022-07-25T12:13:29;6.43;;;1.60;;
19998;SDS011;10160;50.926;4.374;2022-07-25T12:16:09;8.60;;;1.80;;
19998;SDS011;10160;50.926;4.374;2022-07-25T12:24:57;8.90;;;2.03;;
19998;SDS011;10160;50.926;4.374;2022-07-25T12:27:23;7.97;;;2.10;;
19998;SDS011;10160;50.926;4.374;2022-07-25T12:29:48;7.07;;;1.88;;
19998;SDS011;10160;50.926;4.374;2022-07-25T12:32:14;7.10;;;2.25;;
19998;SDS011;10160;50.926;4.374;2022-07-25T12:34:39;10.25;;;1.92;;
19998;SDS011;10160;50.926;4.374;2022-07-25T12:37:06;11.73;;;2.00;;
19998;SDS011;10160;50.926;4.374;2022-07-25T12:39:32;7.13;;;1.65;;
19998;SDS011;10160;50.926;4.374;2022-07-25T12:45:22;6.50;;;1.98;;
19998;SDS011;10160;50.926;4.374;2022-07-25T12:47:47;6.18;;;1.13;;
19998;SDS011;10160;50.926;4.374;2022-07-25T12:50:14;9.98;;;1.50;;
19998;SDS011;10160;50.926;4.374;2022-07-25T12:52:42;6.43;;;1.90;;
19998;SDS011;10160;50.926;4.374;2022-07-25T12:55:10;11.93;;;1.48;;
19998;SDS011;10160;50.926;4.374;2022-07-25T12:57:38;11.82;;;1.52;;
19998;SDS011;10160;50.926;4.374;2022-07-25T13:03:37;13.27;;;2.00;;
19998;SDS011;10160;50.926;4.374;2022-07-25T13:16:08;9.82;;;1.80;;
19998;SDS011;10160;50.926;4.374;2022-07-25T13:18:36;11.00;;;2.25;;
19998;SDS011;10160;50.926;4.374;2022-07-25T13:44:20;6.18;;;1.33;;
19998;SDS011;10160;50.926;4.374;2022-07-25T13:46:47;6.43;;;1.67;;
19998;SDS011;10160;50.926;4.374;2022-07-25T13:49:16;7.70;;;1.10;;
19998;SDS011;10160;50.926;4.374;2022-07-25T13:51:42;5.30;;;1.13;;
19998;SDS011;10160;50.926;4.374;2022-07-25T13:57:35;4.63;;;0.90;;
19998;SDS011;10160;50.926;4.374;2022-07-25T14:06:48;11.95;;;1.42;;
19998;SDS011;10160;50.926;4.374;2022-07-25T14:22:20;6.28;;;1.10;;
19998;SDS011;10160;50.926;4.374;2022-07-25T14:28:10;4.80;;;1.17;;
19998;SDS011;10160;50.926;4.374;2022-07-25T14:33:41;6.35;;;1.15;;
19998;SDS011;10160;50.926;4.374;2022-07-25T14:36:08;9.00;;;1.58;;
19998;SDS011;10160;50.926;4.374;2022-07-25T14:38:34;6.25;;;1.08;;
19998;SDS011;10160;50.926;4.374;2022-07-25T17:08:40;5.55;;;0.90;;
19998;SDS011;10160;50.926;4.374;2022-07-25T17:14:43;5.00;;;0.90;;
19998;SDS011;10160;50.926;4.374;2022-07-25T17:20:34;5.53;;;0.82;;
19998;SDS011;10160;50.926;4.374;2022-07-25T17:39:43;8.00;;;1.10;;
19998;SDS011;10160;50.926;4.374;2022-07-25T17:42:08;6.78;;;0.88;;
19998;SDS011;10160;50.926;4.374;2022-07-25T19:35:37;6.65;;;1.00;;
